Hlavní strana
METAR-TAF:

METAR-TAF

Letiště :

Pécs, Maďarsko

zeměpisná šířka: 46-06N, zeměpisná délka: 018-14E, výška: 201 m

Aktuální stav počasí

Zpráva byla vytvořena před 19 minutami, v 10:41 UTC
Východojihovýchodní vítr 7 kt
Teplota 31°C
Vlhkost vzduchu 33%
Tlak 1016 hPa
Viditelnost 10 km a více
Skoro jasno ve výšce 6600 ft, Cumulonimbus.

METAR: LHPP 201041Z 11007KT 9999 FEW066CB 31/13 Q1016

Čas: 13:00 (11:00 UTC)

Předpověď počasí

Zpráva byla vytvořena před 2 hodinami a 45 minutami, v 08:15 UTC
Předpověď platná od 20 v 09 UTC do 20 v 18 UTC
Východní vítr 5 kt
Viditelnost 10 km a více
Žádná oblačnost pod 1500 m, nevyskytují se cumulonimby.
Pravděpodobnost 30% :
Dočasný
od 20 v 12 UTC do 20 v 15 UTC
vítr z různých směrů 15 kt s nárazy do 25 kt
Viditelnost 10 km a více
Polojasno ve výšce 5000 ft, Cumulonimbus.
Oblačno až skoro zataženo ve výšce 6000 ft
dešťové přeháňky, bouřka, slabý déšť

TAF: LHPP 200815Z 2009/2018 10005KT CAVOK PROB30 TEMPO 2012/2015 VRB15G25KT 9999 SHRA -TSRA SCT050CB BKN060

Stav a předpovědi počasí z více než 4 000 letišť (zprávy METAR a TAF).

Červené a žluté tečky na mapě představují dostupné meteorologické stanice.

Když kurzor umístíte na tečku, zobrazí se název stanice.

Pak kliknutím zobrazíte stav a předpověď počasí.

Chcete-li změnit mapu, kliknutím na zelené tlačítko se znaménkem +mapu přiblížíte, kliknutím na zelené tlačítko se znaménkem – mapu oddálíte a kliknutím na zelené šipky přejdete na sousední mapy.


METAR-TAF: